CA-0074 weather

CLOSED Campbellford Airport
Campbellford, Ontario, Canada

Public forecast

Using degrees Celsius for public forecast. Weather courtesy of forecast.io.

METAR (pilot weather report)

Closest report is CFB Trenton, 19.8 nm (36.6 km) SSE. Retrieved 2019/05/27 07:00 UTC (30 minutes ago):

CYTR 270700Z 01002KT 15SM SKC 13/10 A2998 RMK SLP155

TAF (pilot weather forecast)

Closest forecast is CFB Trenton, 19.8 nm (36.6 km) SSE. Retrieved 2019/05/27 06:33 UTC (57 minutes ago):

TAF CYTR 270530Z 2706/2806 VRB03KT P6SM FEW060 BECMG 2710/2712 02008KT FM271200 02008KT P6SM BKN040 BECMG 2716/2718 20010KT BECMG 2800/2802 VRB03KT RMK NXT FCST BY 271200Z